createdAt,value
2022-10-18T00:01:07.870Z,18.25
2022-10-18T00:03:39.460Z,17.15
2022-10-18T00:06:08.553Z,16.88
2022-10-18T00:08:37.374Z,17.40
2022-10-18T00:11:05.941Z,15.93
2022-10-18T00:13:33.699Z,15.57
2022-10-18T00:16:09.991Z,15.32
2022-10-18T00:18:39.649Z,16.25
2022-10-18T00:21:10.787Z,15.35
2022-10-18T00:23:39.204Z,15.63
2022-10-18T00:26:08.278Z,14.68
2022-10-18T00:28:39.367Z,16.75
2022-10-18T00:31:17.827Z,15.85
2022-10-18T00:33:49.489Z,16.42
2022-10-18T00:36:17.789Z,15.50
2022-10-18T00:38:46.317Z,17.17
2022-10-18T00:41:16.367Z,16.20
2022-10-18T00:43:55.852Z,16.73
2022-10-18T00:46:24.592Z,15.07
2022-10-18T00:48:56.122Z,16.77
2022-10-18T00:51:27.327Z,16.40
2022-10-18T00:53:55.425Z,20.83
2022-10-18T00:56:23.219Z,17.83
2022-10-18T00:58:51.959Z,18.63
2022-10-18T01:01:24.475Z,18.85
2022-10-18T01:03:57.165Z,19.63
2022-10-18T01:06:25.706Z,19.08
2022-10-18T01:09:05.503Z,20.10
2022-10-18T01:12:14.480Z,20.25
2022-10-18T01:14:50.423Z,18.73
2022-10-18T01:17:23.150Z,18.08
2022-10-18T01:20:19.275Z,16.92
2022-10-18T01:22:52.830Z,16.85
2022-10-18T01:25:35.996Z,17.10
2022-10-18T01:28:15.909Z,19.42
2022-10-18T01:31:01.165Z,18.73
2022-10-18T01:33:37.872Z,17.77
2022-10-18T01:36:12.480Z,18.55
2022-10-18T01:38:42.935Z,17.23
2022-10-18T01:41:15.847Z,18.63
2022-10-18T01:43:48.286Z,19.08
2022-10-18T01:46:22.055Z,16.83
2022-10-18T01:48:51.258Z,18.35
2022-10-18T01:51:20.371Z,16.60
2022-10-18T01:53:47.990Z,18.65
2022-10-18T01:56:25.458Z,16.70
2022-10-18T01:59:04.901Z,16.70
2022-10-18T02:01:43.857Z,17.38
2022-10-18T02:04:22.581Z,15.93
2022-10-18T02:06:57.648Z,16.85
2022-10-18T02:09:34.522Z,17.05
2022-10-18T02:12:03.664Z,16.40
2022-10-18T02:14:33.130Z,15.38
2022-10-18T02:17:08.417Z,15.95
2022-10-18T02:19:39.314Z,15.07
2022-10-18T02:22:09.933Z,15.77
2022-10-18T02:24:41.115Z,15.73
2022-10-18T02:27:09.511Z,15.45
2022-10-18T02:29:37.859Z,16.20
2022-10-18T02:32:14.939Z,15.95
2022-10-18T02:34:46.805Z,16.63
2022-10-18T02:37:17.208Z,15.38
2022-10-18T02:39:48.369Z,16.70
2022-10-18T02:42:16.584Z,16.50
2022-10-18T02:44:44.142Z,18.13
2022-10-18T02:47:14.037Z,15.90
2022-10-18T02:49:41.608Z,16.05
2022-10-18T02:52:09.192Z,15.63
2022-10-18T02:54:37.396Z,18.35
2022-10-18T02:57:04.979Z,14.57
2022-10-18T02:59:33.294Z,15.88
2022-10-18T03:02:01.062Z,16.02
2022-10-18T03:04:30.874Z,16.63
2022-10-18T03:06:58.442Z,17.63
2022-10-18T03:09:26.297Z,17.55
2022-10-18T03:11:54.266Z,15.35
2022-10-18T03:14:25.566Z,15.52
2022-10-18T03:16:53.373Z,15.35
2022-10-18T03:19:25.250Z,15.52
2022-10-18T03:21:54.772Z,17.00
2022-10-18T03:24:22.526Z,17.15
2022-10-18T03:26:50.884Z,16.67
2022-10-18T03:29:18.605Z,17.90
2022-10-18T03:31:46.154Z,16.88
2022-10-18T03:34:13.799Z,16.40
2022-10-18T03:36:41.852Z,15.88
2022-10-18T03:39:12.223Z,15.45
2022-10-18T03:41:39.820Z,16.60
2022-10-18T03:44:07.798Z,16.48
2022-10-18T03:46:35.375Z,17.25
2022-10-18T03:49:03.709Z,15.32
2022-10-18T03:51:31.495Z,17.77
2022-10-18T03:54:15.203Z,16.27
2022-10-18T03:56:43.116Z,16.98
2022-10-18T03:59:10.679Z,15.80
2022-10-18T04:01:39.065Z,18.20
2022-10-18T04:04:06.755Z,15.57
2022-10-18T04:06:35.976Z,17.75
2022-10-18T04:09:07.850Z,19.88
2022-10-18T04:11:39.551Z,21.55
2022-10-18T04:14:07.395Z,21.83
2022-10-18T04:19:10.052Z,20.45
2022-10-18T04:21:37.585Z,19.60
2022-10-18T04:24:05.921Z,17.65
2022-10-18T04:26:33.784Z,21.83
2022-10-18T04:29:02.937Z,19.73
2022-10-18T04:31:30.961Z,18.42
2022-10-18T04:33:58.836Z,18.23
2022-10-18T04:36:26.735Z,16.73
2022-10-18T04:38:54.282Z,16.42
2022-10-18T04:41:22.436Z,17.65
2022-10-18T04:43:50.082Z,14.88
2022-10-18T04:46:19.290Z,17.20
2022-10-18T04:48:50.035Z,17.77
2022-10-18T04:51:18.174Z,17.50
2022-10-18T04:53:45.826Z,18.77
2022-10-18T04:56:13.531Z,18.13
2022-10-18T04:58:41.263Z,17.52
2022-10-18T05:01:09.202Z,18.02
2022-10-18T05:03:38.582Z,19.20
2022-10-18T05:06:06.423Z,19.45
2022-10-18T05:08:39.051Z,20.52
2022-10-18T05:11:06.710Z,18.08
2022-10-18T05:13:34.417Z,18.33
2022-10-18T05:16:02.015Z,18.45
2022-10-18T05:18:31.899Z,20.63
2022-10-18T05:21:01.326Z,19.38
2022-10-18T05:23:29.048Z,21.35
2022-10-18T05:26:01.770Z,20.73
2022-10-18T05:28:45.152Z,21.85
2022-10-18T05:31:13.202Z,24.35
2022-10-18T05:33:41.296Z,20.67
2022-10-18T05:36:10.925Z,22.83
2022-10-18T05:38:40.400Z,24.15
2022-10-18T05:41:08.433Z,22.40
2022-10-18T05:43:36.386Z,22.73
2022-10-18T05:46:04.281Z,23.65
2022-10-18T05:48:35.315Z,22.23
2022-10-18T05:51:02.927Z,20.20
2022-10-18T05:53:36.719Z,34.75
2022-10-18T05:56:06.571Z,39.80
2022-10-18T05:58:41.013Z,31.42
2022-10-18T06:01:11.191Z,29.77
2022-10-18T06:03:39.959Z,28.15
2022-10-18T06:06:10.766Z,27.88
2022-10-18T06:08:41.291Z,26.45
2022-10-18T06:11:10.487Z,28.07
2022-10-18T06:13:40.801Z,29.30
2022-10-18T06:16:09.378Z,28.88
2022-10-18T06:18:37.090Z,30.35
2022-10-18T06:21:05.187Z,31.65
2022-10-18T06:23:33.790Z,32.30
2022-10-18T06:26:07.229Z,33.63
2022-10-18T06:28:36.494Z,31.20
2022-10-18T06:31:05.678Z,32.00
2022-10-18T06:33:35.844Z,32.75
2022-10-18T06:36:06.040Z,34.60
2022-10-18T06:38:34.338Z,27.35
2022-10-18T06:41:02.277Z,28.55
2022-10-18T06:43:31.639Z,24.85
2022-10-18T06:46:01.088Z,23.27
2022-10-18T06:48:29.061Z,24.35
2022-10-18T06:50:58.900Z,25.58
2022-10-18T06:53:27.718Z,26.83
2022-10-18T06:55:59.936Z,22.75
2022-10-18T06:58:29.251Z,24.77
2022-10-18T07:00:58.658Z,21.00
2022-10-18T07:03:26.461Z,21.25
2022-10-18T07:05:54.057Z,21.92
2022-10-18T07:08:21.813Z,18.90
2022-10-18T07:10:53.160Z,19.02
2022-10-18T07:13:32.039Z,17.23
2022-10-18T07:16:06.615Z,17.50
2022-10-18T07:18:34.351Z,16.80
2022-10-18T07:21:03.208Z,15.60
2022-10-18T07:23:33.208Z,13.85
2022-10-18T07:26:00.946Z,14.32
2022-10-18T07:28:28.606Z,12.88
2022-10-18T07:30:56.674Z,13.07
2022-10-18T07:33:29.166Z,12.40
2022-10-18T07:36:00.590Z,11.60
2022-10-18T07:38:28.196Z,11.55
2022-10-18T07:40:56.838Z,12.02
2022-10-18T07:43:26.203Z,10.10
2022-10-18T07:45:54.616Z,8.80
2022-10-18T07:48:22.808Z,8.52
2022-10-18T07:50:52.237Z,9.05
2022-10-18T07:53:19.749Z,10.65
2022-10-18T07:55:47.191Z,10.27
2022-10-18T07:58:14.893Z,8.85
2022-10-18T08:00:42.499Z,9.13
2022-10-18T08:03:09.938Z,11.52
2022-10-18T08:05:38.025Z,8.45
2022-10-18T08:08:08.112Z,7.32
2022-10-18T08:10:36.003Z,8.80
2022-10-18T08:13:04.481Z,8.45
2022-10-18T08:15:32.277Z,7.95
2022-10-18T08:17:59.804Z,8.35
2022-10-18T08:20:30.983Z,6.88
2022-10-18T08:25:30.913Z,6.80
2022-10-18T08:27:58.509Z,6.95
2022-10-18T08:30:25.958Z,6.60
2022-10-18T08:32:53.867Z,5.53
2022-10-18T08:35:21.371Z,7.20
2022-10-18T08:37:50.093Z,6.10
2022-10-18T08:40:18.180Z,6.10
2022-10-18T08:43:00.907Z,5.75
2022-10-18T08:45:42.014Z,5.70
2022-10-18T08:50:45.927Z,6.10
2022-10-18T08:53:19.508Z,6.60
2022-10-18T08:55:50.353Z,5.68
2022-10-18T08:58:24.758Z,5.22
2022-10-18T09:01:03.255Z,4.05
2022-10-18T09:03:47.098Z,4.25
2022-10-18T09:06:23.672Z,4.00
2022-10-18T09:09:08.535Z,4.43
2022-10-18T09:11:51.657Z,4.35
2022-10-18T09:14:51.330Z,4.38
2022-10-18T09:17:28.406Z,3.95
2022-10-18T09:20:10.679Z,3.72
2022-10-18T09:22:47.947Z,3.65
2022-10-18T09:25:19.003Z,4.15
2022-10-18T09:27:52.294Z,4.32
2022-10-18T09:30:36.490Z,4.45
2022-10-18T09:33:20.094Z,4.65
2022-10-18T09:35:52.603Z,4.80
2022-10-18T09:41:02.369Z,4.32
2022-10-18T09:43:42.698Z,4.60
2022-10-18T09:46:13.021Z,4.25
2022-10-18T09:48:47.414Z,4.30
2022-10-18T09:51:18.292Z,4.63
2022-10-18T09:54:03.423Z,4.47
2022-10-18T09:56:39.447Z,4.45
2022-10-18T09:59:23.584Z,4.53
2022-10-18T10:01:52.589Z,4.18
2022-10-18T10:04:20.061Z,4.30
2022-10-18T10:06:53.099Z,4.28
2022-10-18T10:09:26.529Z,4.28
2022-10-18T10:11:54.177Z,4.22
2022-10-18T10:14:25.103Z,4.28
2022-10-18T10:16:56.013Z,5.43
2022-10-18T10:19:28.114Z,4.40
2022-10-18T10:22:00.206Z,4.63
2022-10-18T10:24:41.934Z,4.63
2022-10-18T10:27:18.098Z,4.43
2022-10-18T10:29:54.917Z,4.20
2022-10-18T10:32:29.374Z,4.15
2022-10-18T10:35:00.036Z,4.47
2022-10-18T10:37:34.236Z,4.30
2022-10-18T10:40:27.847Z,3.97
2022-10-18T10:43:18.170Z,4.55
2022-10-18T10:46:00.705Z,4.78
2022-10-18T10:48:33.500Z,4.20
2022-10-18T10:51:04.876Z,5.22
2022-10-18T10:53:43.199Z,5.05
2022-10-18T10:56:26.628Z,4.90
2022-10-18T10:58:58.788Z,4.40
2022-10-18T11:01:31.868Z,4.32
2022-10-18T11:04:02.766Z,5.00
2022-10-18T11:09:06.409Z,4.38
2022-10-18T11:11:43.232Z,4.43
2022-10-18T11:14:26.263Z,4.47
2022-10-18T11:17:07.731Z,4.65
2022-10-18T11:19:46.100Z,4.30
2022-10-18T11:22:20.803Z,4.68
2022-10-18T11:24:48.547Z,4.38
2022-10-18T11:27:23.608Z,4.78
2022-10-18T11:30:32.996Z,5.10
2022-10-18T11:33:11.730Z,4.00
2022-10-18T11:35:50.214Z,4.75
2022-10-18T11:38:31.383Z,4.50
2022-10-18T11:41:22.300Z,3.90
2022-10-18T11:44:02.999Z,4.07
2022-10-18T11:46:56.845Z,4.60
2022-10-18T11:49:42.278Z,5.28
2022-10-18T11:52:18.091Z,4.40
2022-10-18T11:54:59.166Z,4.43
2022-10-18T11:57:46.651Z,3.80
2022-10-18T12:00:28.803Z,3.78
2022-10-18T12:03:08.912Z,4.30
2022-10-18T12:05:38.202Z,3.85
2022-10-18T12:08:11.686Z,4.38
2022-10-18T12:11:03.470Z,4.07
2022-10-18T12:13:39.145Z,4.78
2022-10-18T12:16:09.451Z,3.90
2022-10-18T12:18:48.007Z,4.90
2022-10-18T12:21:24.536Z,4.50
2022-10-18T12:23:57.695Z,4.68
2022-10-18T12:26:27.370Z,4.20
2022-10-18T12:29:08.002Z,4.05
2022-10-18T12:31:42.363Z,3.60
2022-10-18T12:34:25.547Z,4.47
2022-10-18T12:37:12.378Z,4.50
2022-10-18T12:40:05.631Z,4.32
2022-10-18T12:42:40.700Z,4.57
2022-10-18T12:45:22.765Z,4.05
2022-10-18T12:47:51.413Z,4.40
2022-10-18T12:50:29.740Z,4.32
2022-10-18T12:53:25.064Z,4.30
2022-10-18T12:55:56.344Z,4.60
2022-10-18T12:58:30.081Z,4.10
2022-10-18T13:01:05.105Z,3.67
2022-10-18T13:03:55.343Z,3.90
2022-10-18T13:06:25.955Z,4.25
2022-10-18T13:09:21.727Z,4.05
2022-10-18T13:11:55.115Z,4.30
2022-10-18T13:14:44.089Z,5.60
2022-10-18T13:17:32.225Z,4.50
2022-10-18T13:20:25.637Z,3.90
2022-10-18T13:23:04.314Z,4.22
2022-10-18T13:25:45.021Z,5.20
2022-10-18T13:28:26.411Z,4.65
2022-10-18T13:33:42.643Z,4.80
2022-10-18T13:36:23.532Z,4.30
2022-10-18T13:39:06.416Z,5.10
2022-10-18T13:42:13.609Z,4.82
2022-10-18T13:44:43.678Z,5.43
2022-10-18T13:47:14.460Z,4.57
2022-10-18T13:50:16.519Z,4.63
2022-10-18T13:53:07.571Z,4.30
2022-10-18T13:55:55.783Z,4.90
2022-10-18T13:58:33.744Z,4.57
2022-10-18T14:01:18.056Z,4.22
2022-10-18T14:04:18.455Z,4.40
2022-10-18T14:06:48.492Z,4.43
2022-10-18T14:09:26.413Z,4.45
2022-10-18T14:12:17.058Z,4.78
2022-10-18T14:14:51.071Z,4.15
2022-10-18T14:17:29.850Z,4.10
2022-10-18T14:20:02.940Z,4.30
2022-10-18T14:22:38.177Z,6.05
2022-10-18T14:25:20.710Z,4.65
2022-10-18T14:27:50.959Z,4.78
2022-10-18T14:30:21.635Z,19.20
2022-10-18T14:32:52.802Z,20.67
2022-10-18T14:35:38.134Z,10.13
2022-10-18T14:38:13.871Z,12.25
2022-10-18T14:40:41.463Z,19.05
2022-10-18T14:43:12.990Z,11.18
2022-10-18T14:45:41.916Z,10.55
2022-10-18T14:48:16.596Z,13.25
2022-10-18T14:50:49.144Z,11.95
2022-10-18T14:53:20.238Z,12.27
2022-10-18T14:55:54.851Z,29.48
2022-10-18T14:58:22.851Z,73.78
2022-10-18T15:00:50.671Z,35.25
2022-10-18T15:03:20.212Z,24.05
2022-10-18T15:05:54.202Z,19.20
2022-10-18T15:08:23.583Z,18.02
2022-10-18T15:10:52.257Z,13.05
2022-10-18T15:13:20.970Z,8.90
2022-10-18T15:15:50.295Z,30.15
2022-10-18T15:18:22.807Z,42.80
2022-10-18T15:21:09.520Z,28.52
2022-10-18T15:23:37.118Z,24.80
2022-10-18T15:26:07.223Z,36.78
2022-10-18T15:28:38.014Z,19.53
2022-10-18T15:31:05.985Z,21.92
2022-10-18T15:33:35.624Z,17.05
2022-10-18T15:36:11.729Z,12.63
2022-10-18T15:38:42.699Z,9.50
2022-10-18T15:41:37.605Z,8.88
2022-10-18T15:44:18.443Z,9.00
2022-10-18T15:46:46.952Z,10.77
2022-10-18T15:49:49.973Z,11.25
2022-10-18T15:52:38.285Z,14.27
2022-10-18T15:55:46.391Z,12.48
2022-10-18T15:58:19.718Z,15.75
2022-10-18T16:00:49.045Z,15.27
2022-10-18T16:03:18.054Z,14.93
2022-10-18T16:05:47.286Z,13.77
2022-10-18T16:08:23.676Z,14.43
2022-10-18T16:10:52.174Z,14.23
2022-10-18T16:13:19.735Z,12.95
2022-10-18T16:15:48.467Z,11.80
2022-10-18T16:18:18.999Z,13.77
2022-10-18T16:20:48.538Z,11.63
2022-10-18T16:23:18.418Z,11.48
2022-10-18T16:25:46.878Z,11.57
2022-10-18T16:28:16.692Z,10.68
2022-10-18T16:30:52.985Z,11.05
2022-10-18T16:33:21.712Z,11.63
2022-10-18T16:35:53.361Z,11.48
2022-10-18T16:38:29.893Z,11.47
2022-10-18T16:41:01.468Z,10.88
2022-10-18T16:43:30.719Z,17.15
2022-10-18T16:45:58.481Z,26.73
2022-10-18T16:48:28.624Z,32.70
2022-10-18T16:50:58.339Z,39.20
2022-10-18T16:53:26.500Z,52.13
2022-10-18T16:55:56.430Z,49.70
2022-10-18T16:58:25.235Z,46.55
2022-10-18T17:00:53.219Z,43.40
2022-10-18T17:03:21.660Z,46.33
2022-10-18T17:05:49.802Z,40.90
2022-10-18T17:08:20.808Z,44.08
2022-10-18T17:10:50.562Z,41.08
2022-10-18T17:13:18.578Z,45.45
2022-10-18T17:15:47.047Z,43.95
2022-10-18T17:18:17.241Z,45.08
2022-10-18T17:20:45.740Z,36.50
2022-10-18T17:23:13.505Z,24.55
2022-10-18T17:25:57.380Z,25.85
2022-10-18T17:28:33.055Z,23.08
2022-10-18T17:31:01.086Z,20.92
2022-10-18T17:33:28.696Z,20.73
2022-10-18T17:35:57.051Z,21.10
2022-10-18T17:38:25.049Z,20.25
2022-10-18T17:40:55.056Z,23.10
2022-10-18T17:43:22.618Z,22.60
2022-10-18T17:45:55.084Z,24.73
2022-10-18T17:48:23.019Z,23.25
2022-10-18T17:50:50.664Z,26.20
2022-10-18T17:53:18.927Z,26.40
2022-10-18T17:55:46.469Z,19.98
2022-10-18T17:58:15.610Z,20.55
2022-10-18T18:00:43.237Z,20.27
2022-10-18T18:03:10.909Z,22.92
2022-10-18T18:05:38.755Z,21.25
2022-10-18T18:08:06.605Z,21.10
2022-10-18T18:10:35.010Z,20.38
2022-10-18T18:13:02.790Z,18.65
2022-10-18T18:15:34.211Z,18.50
2022-10-18T18:18:02.031Z,19.98
2022-10-18T18:20:30.814Z,21.90
2022-10-18T18:23:00.820Z,22.05
2022-10-18T18:25:28.396Z,24.08
2022-10-18T18:27:55.967Z,21.50
2022-10-18T18:30:23.702Z,21.70
2022-10-18T18:32:53.143Z,19.85
2022-10-18T18:35:20.697Z,18.67
2022-10-18T18:37:50.415Z,17.58
2022-10-18T18:40:18.187Z,18.20
2022-10-18T18:42:56.785Z,18.80
2022-10-18T18:45:33.796Z,17.00
2022-10-18T18:48:02.965Z,16.30
2022-10-18T18:50:30.624Z,18.70
2022-10-18T18:52:58.514Z,16.83
2022-10-18T18:55:26.513Z,17.65
2022-10-18T18:57:54.111Z,19.20
2022-10-18T19:00:21.992Z,21.38
2022-10-18T19:02:49.554Z,18.58
2022-10-18T19:05:18.598Z,19.77
2022-10-18T19:07:47.211Z,20.80
2022-10-18T19:10:14.910Z,20.58
2022-10-18T19:13:02.880Z,18.67
2022-10-18T19:15:30.848Z,20.42
2022-10-18T19:17:59.690Z,22.20
2022-10-18T19:20:30.700Z,22.67
2022-10-18T19:22:58.251Z,25.70
2022-10-18T19:25:27.046Z,24.55
2022-10-18T19:27:54.928Z,23.48
2022-10-18T19:30:22.603Z,26.15
2022-10-18T19:32:50.538Z,26.08
2022-10-18T19:35:18.153Z,27.17
2022-10-18T19:37:47.573Z,29.38
2022-10-18T19:40:15.509Z,27.85
2022-10-18T19:42:43.638Z,36.03
2022-10-18T19:45:11.211Z,32.40
2022-10-18T19:47:40.385Z,30.67
2022-10-18T19:50:08.522Z,32.83
2022-10-18T19:52:36.573Z,38.75
2022-10-18T19:55:06.809Z,48.00
2022-10-18T19:57:34.865Z,53.67
2022-10-18T20:00:03.570Z,39.13
2022-10-18T20:02:33.491Z,27.67
2022-10-18T20:05:02.805Z,23.42
2022-10-18T20:07:30.736Z,22.75
2022-10-18T20:09:58.303Z,23.15
2022-10-18T20:12:27.524Z,25.30
2022-10-18T20:14:55.130Z,28.38
2022-10-18T20:17:25.346Z,32.85
2022-10-18T20:19:53.690Z,34.67
2022-10-18T20:22:21.629Z,31.58
2022-10-18T20:24:49.931Z,28.23
2022-10-18T20:27:17.574Z,29.30
2022-10-18T20:29:47.224Z,29.33
2022-10-18T20:32:15.388Z,29.92
2022-10-18T20:34:43.169Z,22.58
2022-10-18T20:37:10.717Z,20.90
2022-10-18T20:39:58.326Z,23.75
2022-10-18T20:42:27.306Z,22.95
2022-10-18T20:44:56.435Z,18.15
2022-10-18T20:47:24.250Z,17.80
2022-10-18T20:49:51.869Z,18.58
2022-10-18T20:52:19.577Z,18.48
2022-10-18T20:54:47.813Z,19.75
2022-10-18T20:57:15.352Z,21.15
2022-10-18T20:59:43.242Z,22.20
2022-10-18T21:02:13.168Z,21.58
2022-10-18T21:04:42.307Z,19.77
2022-10-18T21:07:10.785Z,19.02
2022-10-18T21:09:38.412Z,19.13
2022-10-18T21:12:06.098Z,17.48
2022-10-18T21:14:33.814Z,19.05
2022-10-18T21:17:01.629Z,16.75
2022-10-18T21:19:31.854Z,16.85
2022-10-18T21:22:01.163Z,17.87
2022-10-18T21:24:29.636Z,16.98
2022-10-18T21:26:58.001Z,17.80
2022-10-18T21:29:25.664Z,17.80
2022-10-18T21:31:55.237Z,18.90
2022-10-18T21:34:22.816Z,18.00
2022-10-18T21:36:51.928Z,18.67
2022-10-18T21:39:22.009Z,18.65
2022-10-18T21:41:50.057Z,18.55
2022-10-18T21:44:17.960Z,15.00
2022-10-18T21:46:45.723Z,14.77
2022-10-18T21:49:14.418Z,16.20
2022-10-18T21:51:42.732Z,15.07
2022-10-18T21:54:14.632Z,15.15
2022-10-18T21:56:42.629Z,15.73
2022-10-18T21:59:11.629Z,15.02
2022-10-18T22:01:40.993Z,16.30
2022-10-18T22:04:18.406Z,15.30
2022-10-18T22:06:46.357Z,14.38
2022-10-18T22:09:16.006Z,12.45
2022-10-18T22:11:46.479Z,11.13
2022-10-18T22:14:14.388Z,10.50
2022-10-18T22:16:41.981Z,10.73
2022-10-18T22:19:12.501Z,12.65
2022-10-18T22:21:40.076Z,13.25
2022-10-18T22:24:09.235Z,12.63
2022-10-18T22:26:42.120Z,14.23
2022-10-18T22:29:13.112Z,13.18
2022-10-18T22:31:44.887Z,11.30
2022-10-18T22:34:14.682Z,17.02
2022-10-18T22:36:43.305Z,16.52
2022-10-18T22:39:12.102Z,15.15
2022-10-18T22:44:13.407Z,16.83
2022-10-18T22:46:41.638Z,17.75
2022-10-18T22:49:09.513Z,18.85
2022-10-18T22:51:37.362Z,18.33
2022-10-18T22:54:05.600Z,17.23
2022-10-18T22:56:33.329Z,13.13
2022-10-18T22:59:02.626Z,12.90
2022-10-18T23:01:30.361Z,10.95
2022-10-18T23:03:59.555Z,10.80
2022-10-18T23:06:29.115Z,10.15
2022-10-18T23:08:58.186Z,10.60
2022-10-18T23:11:27.145Z,10.18
2022-10-18T23:13:55.460Z,10.02
2022-10-18T23:16:24.962Z,10.68
2022-10-18T23:18:55.152Z,9.95
2022-10-18T23:21:24.560Z,11.18
2022-10-18T23:23:53.080Z,10.07
2022-10-18T23:26:23.046Z,10.23
2022-10-18T23:28:52.457Z,9.90
2022-10-18T23:31:21.769Z,12.68
2022-10-18T23:33:53.399Z,10.80
2022-10-18T23:36:21.321Z,11.15
2022-10-18T23:38:49.449Z,10.45
2022-10-18T23:41:17.565Z,9.77
2022-10-18T23:43:47.206Z,11.35
2022-10-18T23:46:16.089Z,10.77
2022-10-18T23:48:44.139Z,18.73
2022-10-18T23:51:13.769Z,19.45
2022-10-18T23:53:41.757Z,14.52
2022-10-18T23:56:11.986Z,14.45
2022-10-18T23:58:40.784Z,13.07
